createdAt,value
2023-02-25T00:00:41.256Z,66.69
2023-02-25T00:02:46.390Z,66.40
2023-02-25T00:04:48.329Z,66.37
2023-02-25T00:06:50.756Z,66.75
2023-02-25T00:08:54.316Z,66.12
2023-02-25T00:11:03.845Z,66.63
2023-02-25T00:13:17.846Z,66.38
2023-02-25T00:15:21.056Z,66.59
2023-02-25T00:17:23.578Z,66.43
2023-02-25T00:19:27.131Z,66.47
2023-02-25T00:21:29.680Z,66.61
2023-02-25T00:23:32.261Z,66.55
2023-02-25T00:25:34.353Z,66.20
2023-02-25T00:27:37.443Z,66.39
2023-02-25T00:29:39.494Z,65.92
2023-02-25T00:31:42.479Z,66.17
2023-02-25T00:33:45.018Z,66.14
2023-02-25T00:35:48.694Z,66.23
2023-02-25T00:37:52.274Z,66.47
2023-02-25T00:39:54.544Z,65.94
2023-02-25T00:41:56.477Z,65.96
2023-02-25T00:44:01.098Z,65.75
2023-02-25T00:46:03.231Z,65.49
2023-02-25T00:48:07.743Z,65.01
2023-02-25T00:50:11.674Z,64.94
2023-02-25T00:52:15.136Z,64.81
2023-02-25T00:54:17.474Z,64.82
2023-02-25T00:56:20.997Z,64.65
2023-02-25T00:58:23.365Z,64.87
2023-02-25T01:00:25.737Z,64.76
2023-02-25T01:02:27.783Z,65.51
2023-02-25T01:04:29.992Z,65.49
2023-02-25T01:06:34.000Z,65.18
2023-02-25T01:08:39.070Z,65.58
2023-02-25T01:10:41.689Z,65.15
2023-02-25T01:12:43.866Z,64.98
2023-02-25T01:14:45.905Z,65.44
2023-02-25T01:16:49.475Z,65.11
2023-02-25T01:18:54.296Z,65.12
2023-02-25T01:20:57.233Z,65.14
2023-02-25T01:22:59.379Z,65.07
2023-02-25T01:25:01.861Z,65.67
2023-02-25T01:27:04.473Z,65.19
2023-02-25T01:29:08.487Z,65.86
2023-02-25T01:31:18.813Z,65.99
2023-02-25T01:33:21.627Z,65.67
2023-02-25T01:35:23.727Z,65.51
2023-02-25T01:37:27.052Z,65.47
2023-02-25T01:39:30.298Z,65.36
2023-02-25T01:41:34.539Z,65.33
2023-02-25T01:43:36.727Z,65.42
2023-02-25T01:45:43.468Z,65.66
2023-02-25T01:47:50.761Z,65.93
2023-02-25T01:49:53.017Z,65.51
2023-02-25T01:52:11.856Z,65.42
2023-02-25T01:54:14.973Z,65.34
2023-02-25T01:56:21.128Z,65.47
2023-02-25T01:58:23.647Z,64.99
2023-02-25T02:00:27.920Z,64.84
2023-02-25T02:02:33.522Z,64.96
2023-02-25T02:04:42.117Z,64.72
2023-02-25T02:06:50.539Z,64.67
2023-02-25T02:08:52.846Z,64.57
2023-02-25T02:10:56.426Z,64.87
2023-02-25T02:12:58.636Z,64.60
2023-02-25T02:15:04.715Z,64.60
2023-02-25T02:17:18.979Z,64.59
2023-02-25T02:19:35.882Z,64.04
2023-02-25T02:22:17.709Z,63.69
2023-02-25T02:24:22.730Z,63.40
2023-02-25T02:26:51.013Z,63.44
2023-02-25T02:29:19.336Z,63.64
2023-02-25T02:31:39.645Z,64.03
2023-02-25T02:33:57.320Z,63.48
2023-02-25T02:36:06.129Z,63.54
2023-02-25T02:38:29.494Z,63.58
2023-02-25T02:40:58.922Z,63.19
2023-02-25T02:43:11.100Z,63.50
2023-02-25T02:45:16.049Z,63.17
2023-02-25T02:47:25.951Z,63.24
2023-02-25T02:50:00.168Z,63.12
2023-02-25T02:52:08.573Z,62.61
2023-02-25T02:54:14.277Z,62.55
2023-02-25T02:56:20.208Z,62.58
2023-02-25T02:58:57.286Z,62.32
2023-02-25T03:01:12.542Z,62.29
2023-02-25T03:03:22.376Z,62.54
2023-02-25T03:05:28.643Z,62.54
2023-02-25T03:07:35.768Z,62.08
2023-02-25T03:09:54.503Z,62.09
2023-02-25T03:11:56.963Z,62.36
2023-02-25T03:13:59.441Z,62.28
2023-02-25T03:16:06.040Z,61.74
2023-02-25T03:18:22.075Z,61.57
2023-02-25T03:20:42.290Z,61.61
2023-02-25T03:22:47.943Z,61.86
2023-02-25T03:25:01.065Z,61.70
2023-02-25T03:27:26.044Z,61.59
2023-02-25T03:29:31.221Z,61.44
2023-02-25T03:31:43.213Z,61.62
2023-02-25T03:33:54.821Z,61.24
2023-02-25T03:35:59.657Z,61.28
2023-02-25T03:38:20.966Z,61.12
2023-02-25T03:40:26.907Z,61.29
2023-02-25T03:42:33.778Z,60.73
2023-02-25T03:44:42.047Z,61.35
2023-02-25T03:46:47.397Z,60.81
2023-02-25T03:48:52.187Z,60.63
2023-02-25T03:51:02.117Z,60.49
2023-02-25T03:53:05.411Z,60.85
2023-02-25T03:55:39.856Z,61.00
2023-02-25T03:57:47.372Z,60.43
2023-02-25T03:59:49.478Z,60.41
2023-02-25T04:01:53.768Z,59.96
2023-02-25T04:03:55.833Z,60.06
2023-02-25T04:05:58.623Z,60.30
2023-02-25T04:08:01.145Z,60.42
2023-02-25T04:10:10.940Z,60.31
2023-02-25T04:12:13.194Z,59.97
2023-02-25T04:14:15.931Z,60.41
2023-02-25T04:16:17.987Z,60.34
2023-02-25T04:18:21.200Z,60.12
2023-02-25T04:20:23.336Z,60.23
2023-02-25T04:22:25.827Z,59.95
2023-02-25T04:24:27.601Z,60.40
2023-02-25T04:26:29.792Z,60.28
2023-02-25T04:28:32.195Z,59.98
2023-02-25T04:30:34.580Z,60.37
2023-02-25T04:32:36.728Z,59.75
2023-02-25T04:34:39.027Z,60.01
2023-02-25T04:36:41.724Z,60.32
2023-02-25T04:38:44.097Z,60.26
2023-02-25T04:40:46.143Z,60.42
2023-02-25T04:42:48.775Z,60.75
2023-02-25T04:44:50.816Z,60.64
2023-02-25T04:46:53.510Z,60.56
2023-02-25T04:48:56.171Z,60.37
2023-02-25T04:51:02.889Z,60.40
2023-02-25T04:53:04.849Z,60.23
2023-02-25T04:55:10.640Z,60.41
2023-02-25T04:57:13.226Z,60.84
2023-02-25T04:59:16.331Z,60.60
2023-02-25T05:01:18.474Z,60.66
2023-02-25T05:03:20.825Z,60.70
2023-02-25T05:05:23.455Z,60.81
2023-02-25T05:07:25.606Z,60.64
2023-02-25T05:09:27.838Z,60.92
2023-02-25T05:11:29.897Z,61.07
2023-02-25T05:13:32.809Z,61.09
2023-02-25T05:15:35.110Z,60.86
2023-02-25T05:17:37.162Z,61.11
2023-02-25T05:19:39.184Z,60.87
2023-02-25T05:21:41.192Z,61.09
2023-02-25T05:23:44.903Z,61.15
2023-02-25T05:25:47.119Z,60.83
2023-02-25T05:27:49.197Z,60.65
2023-02-25T05:29:51.892Z,60.58
2023-02-25T05:31:55.418Z,60.87
2023-02-25T05:33:57.604Z,60.94
2023-02-25T05:35:59.611Z,60.77
2023-02-25T05:38:02.020Z,61.22
2023-02-25T05:40:04.658Z,61.22
2023-02-25T05:42:07.055Z,61.26
2023-02-25T05:44:11.044Z,61.62
2023-02-25T05:46:14.228Z,61.44
2023-02-25T05:48:16.284Z,61.18
2023-02-25T05:50:18.391Z,61.39
2023-02-25T05:52:20.495Z,61.50
2023-02-25T05:54:22.817Z,61.67
2023-02-25T05:56:26.154Z,61.32
2023-02-25T05:58:28.387Z,61.74
2023-02-25T06:00:30.291Z,61.35
2023-02-25T06:02:33.837Z,61.93
2023-02-25T06:04:36.090Z,61.87
2023-02-25T06:06:38.172Z,62.32
2023-02-25T06:08:42.047Z,61.84
2023-02-25T06:10:44.287Z,62.14
2023-02-25T06:12:48.882Z,62.68
2023-02-25T06:14:50.933Z,62.67
2023-02-25T06:16:57.165Z,62.26
2023-02-25T06:19:01.256Z,62.20
2023-02-25T06:21:05.650Z,62.69
2023-02-25T06:23:07.814Z,62.78
2023-02-25T06:25:10.160Z,62.62
2023-02-25T06:27:12.749Z,62.88
2023-02-25T06:29:15.005Z,62.75
2023-02-25T06:31:19.224Z,62.63
2023-02-25T06:33:21.300Z,62.71
2023-02-25T06:35:23.962Z,62.30
2023-02-25T06:37:26.157Z,62.44
2023-02-25T06:39:28.234Z,62.79
2023-02-25T06:41:30.453Z,62.28
2023-02-25T06:43:32.531Z,62.13
2023-02-25T06:45:34.488Z,62.75
2023-02-25T06:47:36.718Z,62.55
2023-02-25T06:49:38.786Z,62.80
2023-02-25T06:51:40.861Z,62.89
2023-02-25T06:53:44.884Z,63.22
2023-02-25T06:55:47.058Z,63.10
2023-02-25T06:57:49.181Z,63.59
2023-02-25T06:59:53.603Z,63.92
2023-02-25T07:01:55.722Z,63.66
2023-02-25T07:03:57.892Z,63.73
2023-02-25T07:06:00.060Z,63.70
2023-02-25T07:08:02.555Z,63.69
2023-02-25T07:10:05.364Z,63.61
2023-02-25T07:12:07.955Z,63.63
2023-02-25T07:14:10.102Z,63.61
2023-02-25T07:16:14.031Z,63.55
2023-02-25T07:18:16.333Z,63.52
2023-02-25T07:20:18.585Z,63.82
2023-02-25T07:22:22.257Z,63.99
2023-02-25T07:24:27.011Z,63.82
2023-02-25T07:26:29.033Z,64.41
2023-02-25T07:28:31.623Z,64.60
2023-02-25T07:30:34.186Z,64.39
2023-02-25T07:32:36.362Z,64.55
2023-02-25T07:34:39.355Z,64.76
2023-02-25T07:36:41.611Z,64.05
2023-02-25T07:38:44.353Z,64.98
2023-02-25T07:40:46.370Z,64.96
2023-02-25T07:42:48.435Z,65.62
2023-02-25T07:44:52.009Z,65.48
2023-02-25T07:46:54.484Z,65.20
2023-02-25T07:48:56.690Z,65.57
2023-02-25T07:51:10.819Z,66.20
2023-02-25T07:53:12.927Z,66.22
2023-02-25T07:55:15.131Z,66.54
2023-02-25T07:57:17.309Z,66.73
2023-02-25T07:59:23.266Z,65.97
2023-02-25T08:01:27.339Z,66.75
2023-02-25T08:03:29.929Z,66.90
2023-02-25T08:05:36.884Z,66.68
2023-02-25T08:07:41.103Z,66.75
2023-02-25T08:09:43.702Z,66.58
2023-02-25T08:11:46.450Z,67.12
2023-02-25T08:13:48.823Z,66.81
2023-02-25T08:15:50.968Z,66.88
2023-02-25T08:17:56.024Z,66.81
2023-02-25T08:19:58.383Z,67.34
2023-02-25T08:22:00.503Z,67.18
2023-02-25T08:24:02.836Z,66.98
2023-02-25T08:26:05.716Z,67.27
2023-02-25T08:28:07.699Z,66.99
2023-02-25T08:30:10.802Z,67.07
2023-02-25T08:32:12.953Z,67.54
2023-02-25T08:34:15.171Z,67.38
2023-02-25T08:36:20.746Z,67.04
2023-02-25T08:38:22.947Z,67.94
2023-02-25T08:40:25.104Z,67.54
2023-02-25T08:42:27.928Z,67.21
2023-02-25T08:44:30.106Z,67.31
2023-02-25T08:46:40.612Z,67.08
2023-02-25T08:48:42.974Z,67.22
2023-02-25T08:50:45.296Z,67.33
2023-02-25T08:52:47.503Z,67.17
2023-02-25T08:54:50.980Z,66.96
2023-02-25T08:56:55.634Z,67.43
2023-02-25T08:58:57.678Z,67.65
2023-02-25T09:00:59.817Z,67.65
2023-02-25T09:03:02.056Z,67.98
2023-02-25T09:05:04.776Z,67.32
2023-02-25T09:07:06.878Z,68.16
2023-02-25T09:09:09.764Z,67.80
2023-02-25T09:11:11.878Z,68.29
2023-02-25T09:13:14.958Z,68.48
2023-02-25T09:15:17.186Z,68.39
2023-02-25T09:17:19.375Z,68.00
2023-02-25T09:19:21.686Z,67.81
2023-02-25T09:21:24.954Z,68.00
2023-02-25T09:23:27.383Z,68.15
2023-02-25T09:25:30.942Z,67.93
2023-02-25T09:27:33.143Z,68.00
2023-02-25T09:29:37.021Z,67.89
2023-02-25T09:31:40.032Z,67.83
2023-02-25T09:33:43.148Z,68.11
2023-02-25T09:35:45.584Z,68.28
2023-02-25T09:37:50.476Z,67.82
2023-02-25T09:39:52.545Z,67.66
2023-02-25T09:42:38.971Z,67.59
2023-02-25T09:44:45.378Z,67.20
2023-02-25T09:47:11.418Z,66.85
2023-02-25T09:49:26.681Z,66.55
